Time;durP1;ratioP1;P1;durP2;ratioP2;P2;SDS_P1;SDS_P2;PMS_P1;PMS_P2;Temp;Humidity;BMP_temperature;BMP_pressure;BME280_temperature;BME280_humidity;BME280_pressure;Samples;Min_cycle;Max_cycle;Signal;HPM_P1;HPM_P2
2023/01/19 00:00:33;;;;;;;43.77;23.70;;;2.00;99.90;;;;;;5045966;28;20230;-68
2023/01/19 00:03:01;;;;;;;38.50;24.20;;;1.90;99.90;;;;;;5049750;28;20287;-67
2023/01/19 00:05:28;;;;;;;35.87;22.60;;;1.90;99.90;;;;;;5048952;28;20215;-68
2023/01/19 00:07:55;;;;;;;36.57;22.20;;;1.90;99.90;;;;;;5044572;28;20657;-68
2023/01/19 00:10:22;;;;;;;34.07;22.70;;;1.80;99.90;;;;;;5045148;28;20207;-68
2023/01/19 00:12:49;;;;;;;34.47;22.00;;;1.80;99.90;;;;;;5049598;28;20664;-68
2023/01/19 00:15:15;;;;;;;35.97;22.43;;;1.80;99.90;;;;;;5026934;28;20212;-67
2023/01/19 00:17:42;;;;;;;32.67;21.17;;;1.80;99.90;;;;;;5052876;28;20257;-67
2023/01/19 00:20:09;;;;;;;28.57;19.47;;;1.80;99.90;;;;;;5047000;28;20224;-67
2023/01/19 00:22:36;;;;;;;30.00;19.33;;;1.70;99.90;;;;;;5049314;28;20572;-67
2023/01/19 00:25:03;;;;;;;32.80;19.43;;;1.70;99.90;;;;;;5046848;28;20684;-67
2023/01/19 00:27:33;;;;;;;30.13;19.13;;;1.80;99.90;;;;;;5028428;28;20226;-67
2023/01/19 00:30:00;;;;;;;32.47;19.80;;;1.70;99.90;;;;;;5050448;28;20230;-67
2023/01/19 00:32:27;;;;;;;30.27;20.30;;;1.70;99.90;;;;;;5051546;28;20258;-67
2023/01/19 00:34:54;;;;;;;31.63;19.13;;;1.80;99.90;;;;;;5047652;28;20257;-67
2023/01/19 00:37:21;;;;;;;30.47;20.17;;;1.80;99.90;;;;;;5045191;28;20208;-67
2023/01/19 00:39:47;;;;;;;31.27;20.37;;;1.80;99.90;;;;;;5049172;28;20324;-67
2023/01/19 00:44:59;;;;;;;35.13;20.53;;;1.80;99.90;;;;;;5050984;28;20296;-67
2023/01/19 00:47:26;;;;;;;37.70;22.20;;;1.80;99.90;;;;;;5045679;28;20282;-68
2023/01/19 00:49:52;;;;;;;36.10;21.90;;;1.80;99.90;;;;;;5047644;28;20300;-67
2023/01/19 00:52:19;;;;;;;34.37;21.87;;;1.80;99.90;;;;;;5041576;28;20297;-67
2023/01/19 00:54:46;;;;;;;39.27;22.77;;;1.80;99.90;;;;;;5050112;28;20197;-67
2023/01/19 00:57:14;;;;;;;33.20;21.47;;;1.80;99.90;;;;;;5046339;28;20213;-68
2023/01/19 00:59:41;;;;;;;32.80;22.10;;;1.80;99.90;;;;;;5047603;28;20234;-67
2023/01/19 01:02:08;;;;;;;35.87;21.93;;;1.70;99.90;;;;;;5025190;28;20312;-67
2023/01/19 01:04:35;;;;;;;34.40;21.17;;;1.70;99.90;;;;;;5049536;28;20296;-67
2023/01/19 01:07:02;;;;;;;35.43;20.90;;;1.70;99.90;;;;;;5044975;28;20206;-68
2023/01/19 01:09:29;;;;;;;39.57;22.70;;;1.60;99.90;;;;;;5049981;28;20659;-68
2023/01/19 01:11:56;;;;;;;36.30;21.83;;;1.60;99.90;;;;;;5045494;28;20223;-67
2023/01/19 01:14:23;;;;;;;34.83;22.23;;;1.60;99.90;;;;;;5047004;28;20222;-68
2023/01/19 01:16:50;;;;;;;39.87;23.80;;;1.60;99.90;;;;;;5047238;28;20254;-68
2023/01/19 01:19:17;;;;;;;41.43;24.07;;;1.60;99.90;;;;;;5046827;28;20202;-68
2023/01/19 01:21:43;;;;;;;41.37;24.87;;;1.70;99.90;;;;;;5032259;28;20327;-69
2023/01/19 01:24:10;;;;;;;48.80;25.93;;;1.70;99.90;;;;;;5043570;28;20224;-67
2023/01/19 01:26:37;;;;;;;41.37;25.90;;;1.80;99.90;;;;;;5045962;28;20285;-67
2023/01/19 01:29:05;;;;;;;49.03;27.80;;;1.80;99.90;;;;;;5045042;28;20201;-67
2023/01/19 01:31:32;;;;;;;52.50;28.43;;;1.80;99.90;;;;;;5048074;28;20823;-68
2023/01/19 01:33:58;;;;;;;58.27;29.77;;;1.90;99.90;;;;;;5049856;28;20206;-68
2023/01/19 01:36:27;;;;;;;52.70;31.13;;;1.90;99.90;;;;;;5042450;28;20301;-68
2023/01/19 01:38:54;;;;;;;60.23;31.70;;;2.00;99.90;;;;;;5027895;28;20568;-67
2023/01/19 01:41:21;;;;;;;54.60;30.00;;;2.00;99.90;;;;;;5043233;28;20233;-68
2023/01/19 01:43:57;;;;;;;55.37;29.57;;;2.10;99.90;;;;;;5042393;28;20215;-68
2023/01/19 01:46:25;;;;;;;55.20;29.53;;;2.20;99.90;;;;;;5046416;28;20239;-68
2023/01/19 01:49:09;;;;;;;51.83;29.30;;;2.20;99.90;;;;;;5043880;28;20750;-67
2023/01/19 01:51:41;;;;;;;49.70;27.33;;;2.20;99.90;;;;;;5044513;28;20241;-68
2023/01/19 01:54:31;;;;;;;47.37;28.17;;;2.20;99.90;;;;;;5043025;28;20204;-68
2023/01/19 01:57:02;;;;;;;47.00;28.47;;;2.20;99.90;;;;;;5042715;28;20693;-69
2023/01/19 01:59:37;;;;;;;48.50;26.97;;;2.20;99.90;;;;;;5047711;28;20324;-67
2023/01/19 02:05:02;;;;;;;46.23;25.83;;;2.20;99.90;;;;;;5044521;28;20313;-68
2023/01/19 02:13:28;;;;;;;38.07;22.40;;;2.20;99.90;;;;;;5051793;28;20208;-68
2023/01/19 02:15:58;;;;;;;39.30;23.70;;;2.20;99.90;;;;;;5051130;28;20216;-68
2023/01/19 02:18:28;;;;;;;37.30;22.70;;;2.20;99.90;;;;;;5049877;28;20606;-68
2023/01/19 02:21:25;;;;;;;33.73;20.53;;;2.10;99.90;;;;;;5052025;28;20600;-68
2023/01/19 02:23:54;;;;;;;33.60;20.87;;;2.10;99.90;;;;;;5046977;28;20242;-68
2023/01/19 02:26:24;;;;;;;35.10;19.87;;;2.00;99.90;;;;;;5049978;28;20204;-68
2023/01/19 02:29:00;;;;;;;29.27;18.83;;;2.00;99.90;;;;;;5037397;28;20300;-68
2023/01/19 02:31:29;;;;;;;29.20;17.57;;;2.00;99.90;;;;;;5036666;28;20225;-68
2023/01/19 02:33:58;;;;;;;22.33;15.10;;;2.00;99.90;;;;;;5048585;28;20218;-68
2023/01/19 02:36:31;;;;;;;22.93;15.37;;;1.80;99.90;;;;;;5047901;28;20262;-68
2023/01/19 02:39:00;;;;;;;21.27;13.57;;;1.70;99.90;;;;;;5062614;28;20579;-68
2023/01/19 02:41:31;;;;;;;19.97;14.07;;;1.60;99.90;;;;;;5049285;28;20579;-68
2023/01/19 02:43:59;;;;;;;20.00;13.20;;;1.50;99.90;;;;;;5050398;28;20198;-68
2023/01/19 02:46:26;;;;;;;17.70;12.97;;;1.50;99.90;;;;;;5045811;28;20606;-69
2023/01/19 02:48:58;;;;;;;20.23;12.20;;;1.50;99.90;;;;;;5054134;28;20205;-69
2023/01/19 02:51:25;;;;;;;18.17;12.37;;;1.40;99.90;;;;;;5045742;28;20298;-70
2023/01/19 02:54:16;;;;;;;18.40;12.20;;;1.40;99.90;;;;;;5051647;28;20597;-69
2023/01/19 02:57:08;;;;;;;18.60;12.00;;;1.40;99.90;;;;;;5046154;28;20292;-69
2023/01/19 03:00:11;;;;;;;19.27;12.00;;;1.50;99.90;;;;;;5051477;28;20217;-69
2023/01/19 03:03:05;;;;;;;19.03;12.43;;;1.50;99.90;;;;;;5051547;28;20218;-69
2023/01/19 03:05:55;;;;;;;15.83;11.43;;;1.50;99.90;;;;;;5049175;28;20542;-69
2023/01/19 03:08:25;;;;;;;18.57;12.33;;;1.40;99.90;;;;;;5046981;28;20720;-69
2023/01/19 03:11:08;;;;;;;19.03;12.03;;;1.40;99.90;;;;;;5036973;28;20571;-69
2023/01/19 03:13:55;;;;;;;18.37;12.57;;;1.50;99.90;;;;;;5049020;28;20206;-69
2023/01/19 03:16:39;;;;;;;18.97;13.73;;;1.50;99.90;;;;;;5047310;28;20255;-69
2023/01/19 03:19:26;;;;;;;20.83;14.50;;;1.50;99.90;;;;;;5046933;28;20287;-68
2023/01/19 03:22:08;;;;;;;21.57;13.47;;;1.50;99.90;;;;;;5049254;28;20226;-68
2023/01/19 03:24:38;;;;;;;21.73;12.63;;;1.50;99.90;;;;;;5048068;28;20293;-68
2023/01/19 03:27:12;;;;;;;17.93;12.27;;;1.60;99.90;;;;;;5050000;28;20197;-68
2023/01/19 03:29:44;;;;;;;18.03;12.07;;;1.60;99.90;;;;;;5045564;28;20288;-68
2023/01/19 03:32:15;;;;;;;18.17;11.40;;;1.70;99.90;;;;;;5053461;28;20654;-67
2023/01/19 03:34:42;;;;;;;16.80;11.43;;;1.70;99.90;;;;;;5045885;28;20277;-67
2023/01/19 03:37:12;;;;;;;17.90;12.07;;;1.80;99.90;;;;;;5048225;28;20208;-67
2023/01/19 03:39:41;;;;;;;16.77;11.50;;;1.80;99.90;;;;;;5050420;28;20320;-67
2023/01/19 03:42:12;;;;;;;16.93;10.37;;;1.80;99.90;;;;;;5040493;28;20697;-68
2023/01/19 03:44:42;;;;;;;17.83;10.33;;;1.90;99.90;;;;;;5053074;28;20290;-67
2023/01/19 03:47:12;;;;;;;16.20;9.97;;;1.90;99.90;;;;;;5023222;28;20675;-68
2023/01/19 03:49:41;;;;;;;17.60;8.97;;;1.90;99.90;;;;;;5047969;28;20213;-68
2023/01/19 03:52:09;;;;;;;14.00;8.67;;;2.00;99.90;;;;;;5046782;28;20216;-68
2023/01/19 03:54:36;;;;;;;13.73;8.27;;;2.00;99.90;;;;;;5041993;28;20295;-67
2023/01/19 03:57:03;;;;;;;16.70;7.87;;;2.10;99.90;;;;;;5051341;28;20218;-68
2023/01/19 03:59:29;;;;;;;14.77;7.83;;;2.10;99.90;;;;;;5046077;28;20684;-67
2023/01/19 04:01:56;;;;;;;14.30;8.20;;;2.10;99.90;;;;;;5047565;28;20320;-67
2023/01/19 04:04:24;;;;;;;15.77;7.47;;;2.20;99.90;;;;;;5038032;28;20204;-67
2023/01/19 04:06:51;;;;;;;16.80;7.03;;;2.10;99.90;;;;;;5048792;28;20690;-67
2023/01/19 04:09:17;;;;;;;12.43;7.70;;;2.20;99.90;;;;;;5048626;28;20572;-68
2023/01/19 04:11:45;;;;;;;14.40;7.10;;;2.10;99.90;;;;;;5045266;28;20246;-68
2023/01/19 04:14:12;;;;;;;14.10;7.43;;;2.10;99.90;;;;;;5047700;28;20214;-68
2023/01/19 04:16:39;;;;;;;11.73;7.27;;;2.10;99.90;;;;;;5046261;28;20312;-68
2023/01/19 04:19:06;;;;;;;12.13;6.67;;;2.10;99.90;;;;;;5051163;28;20205;-68
2023/01/19 04:21:32;;;;;;;19.37;7.57;;;2.10;99.90;;;;;;5045763;28;20540;-68
2023/01/19 04:23:59;;;;;;;10.53;5.93;;;2.10;99.90;;;;;;5053458;28;20200;-68
2023/01/19 04:26:27;;;;;;;9.93;6.57;;;2.20;99.90;;;;;;5045909;28;20660;-68
2023/01/19 04:28:53;;;;;;;11.40;6.10;;;2.30;99.90;;;;;;5028772;28;20292;-68
2023/01/19 04:31:22;;;;;;;8.93;5.30;;;2.30;99.90;;;;;;5044953;28;20314;-68
2023/01/19 04:33:49;;;;;;;14.07;5.70;;;2.40;99.90;;;;;;5048081;28;20210;-68
2023/01/19 04:36:16;;;;;;;9.83;5.40;;;2.40;99.90;;;;;;5046911;28;20332;-67
2023/01/19 04:38:45;;;;;;;8.30;4.73;;;2.40;99.90;;;;;;5048394;28;20245;-68
2023/01/19 04:41:12;;;;;;;13.97;5.33;;;2.50;99.90;;;;;;5036380;28;20773;-68
2023/01/19 04:43:38;;;;;;;9.43;4.27;;;2.50;99.90;;;;;;5045858;28;20214;-69
2023/01/19 04:46:05;;;;;;;9.97;4.17;;;2.50;99.90;;;;;;5045805;28;20225;-69
2023/01/19 04:48:32;;;;;;;18.83;4.10;;;2.50;99.90;;;;;;5049931;28;20199;-68
2023/01/19 04:50:59;;;;;;;11.53;4.07;;;2.60;99.90;;;;;;5043784;28;20211;-68
2023/01/19 04:53:26;;;;;;;13.37;4.23;;;2.60;99.90;;;;;;5052374;28;20760;-68
2023/01/19 04:55:54;;;;;;;7.60;3.30;;;2.60;99.90;;;;;;5029065;28;20222;-69
2023/01/19 04:58:20;;;;;;;7.47;2.47;;;2.70;99.90;;;;;;5048702;28;20560;-67
2023/01/19 05:00:47;;;;;;;6.13;2.60;;;2.70;99.90;;;;;;5040756;28;20591;-69
2023/01/19 05:03:14;;;;;;;9.37;2.97;;;2.70;99.90;;;;;;5045460;28;20223;-68
2023/01/19 05:05:40;;;;;;;10.87;2.97;;;2.70;99.90;;;;;;5050029;28;20199;-68
2023/01/19 05:08:07;;;;;;;6.83;3.03;;;2.70;99.90;;;;;;5051036;28;20212;-68
2023/01/19 05:10:35;;;;;;;7.37;2.87;;;2.80;99.90;;;;;;5041766;28;20200;-68
2023/01/19 05:13:03;;;;;;;8.63;3.10;;;2.70;99.90;;;;;;5045888;28;20287;-68
2023/01/19 05:15:30;;;;;;;7.50;3.10;;;2.80;99.90;;;;;;5047279;28;20675;-69
2023/01/19 05:17:59;;;;;;;12.20;3.57;;;2.80;99.90;;;;;;5034480;28;20251;-69
2023/01/19 05:20:26;;;;;;;8.93;3.43;;;2.80;99.90;;;;;;5049452;28;20299;-68
2023/01/19 05:22:53;;;;;;;14.83;3.37;;;2.80;99.90;;;;;;5050821;28;20240;-69
2023/01/19 05:25:19;;;;;;;9.03;3.20;;;2.80;99.90;;;;;;5045822;28;20304;-68
2023/01/19 05:27:46;;;;;;;7.53;3.50;;;2.70;99.90;;;;;;5043568;28;20208;-68
2023/01/19 05:30:13;;;;;;;9.40;4.20;;;2.70;99.90;;;;;;5048880;28;20287;-68
2023/01/19 05:32:40;;;;;;;11.50;3.57;;;2.70;99.90;;;;;;5045742;28;20231;-69
2023/01/19 05:35:07;;;;;;;10.40;3.17;;;2.80;99.90;;;;;;5049694;28;20240;-68
2023/01/19 05:37:34;;;;;;;10.00;3.30;;;2.80;99.90;;;;;;5047124;28;20665;-69
2023/01/19 05:40:00;;;;;;;12.50;3.03;;;2.80;99.90;;;;;;5045802;28;20229;-69
2023/01/19 05:42:27;;;;;;;13.53;2.97;;;2.80;99.90;;;;;;5041185;28;20279;-69
2023/01/19 05:44:55;;;;;;;6.50;2.53;;;2.80;99.90;;;;;;5048058;28;20205;-68
2023/01/19 05:47:22;;;;;;;8.70;2.70;;;2.80;99.90;;;;;;5043944;28;20709;-68
2023/01/19 05:49:49;;;;;;;11.53;3.57;;;2.80;99.90;;;;;;5047338;28;20549;-68
2023/01/19 05:52:15;;;;;;;7.30;2.60;;;2.80;99.90;;;;;;5046728;28;20570;-68
2023/01/19 05:54:42;;;;;;;14.47;3.17;;;2.80;99.90;;;;;;5043828;28;20558;-68
2023/01/19 05:57:09;;;;;;;11.93;3.20;;;2.80;99.90;;;;;;5027355;28;20670;-68
2023/01/19 05:59:36;;;;;;;6.30;2.90;;;2.70;99.90;;;;;;5043053;28;20209;-68
2023/01/19 06:02:03;;;;;;;9.73;3.33;;;2.70;99.90;;;;;;5046821;28;20239;-68
2023/01/19 06:04:29;;;;;;;5.20;2.63;;;2.70;99.90;;;;;;5049664;28;20597;-66
2023/01/19 06:06:56;;;;;;;11.37;2.80;;;2.70;99.90;;;;;;5043467;28;20205;-68
2023/01/19 06:09:23;;;;;;;12.00;3.17;;;2.60;99.90;;;;;;5047931;28;20203;-67
2023/01/19 06:11:52;;;;;;;8.13;3.27;;;2.60;99.90;;;;;;5046635;28;20200;-67
2023/01/19 06:14:19;;;;;;;15.57;3.97;;;2.60;99.90;;;;;;5041748;28;20200;-67
2023/01/19 06:16:46;;;;;;;10.30;2.97;;;2.60;99.90;;;;;;5043511;28;20255;-68
2023/01/19 06:19:13;;;;;;;11.43;3.30;;;2.60;99.90;;;;;;5047550;28;20636;-68
2023/01/19 06:21:40;;;;;;;11.80;3.50;;;2.60;99.90;;;;;;5033399;28;20582;-68
2023/01/19 06:24:08;;;;;;;9.60;2.90;;;2.60;99.90;;;;;;5042688;28;20251;-68
2023/01/19 06:26:36;;;;;;;12.40;3.63;;;2.60;99.90;;;;;;5048599;28;20290;-68
2023/01/19 06:29:02;;;;;;;17.93;5.50;;;2.60;99.90;;;;;;5043825;28;20220;-68
2023/01/19 06:31:29;;;;;;;16.10;3.60;;;2.70;99.90;;;;;;5045617;28;20372;-68
2023/01/19 06:33:56;;;;;;;12.00;3.63;;;2.70;99.90;;;;;;5042557;28;20287;-68
2023/01/19 06:36:23;;;;;;;18.67;3.70;;;2.80;99.90;;;;;;5046163;28;20204;-69
2023/01/19 06:38:49;;;;;;;12.40;3.90;;;2.80;99.90;;;;;;5042279;28;20296;-69
2023/01/19 06:41:16;;;;;;;16.53;3.63;;;2.90;99.90;;;;;;5044838;28;20225;-68
2023/01/19 06:43:43;;;;;;;11.33;4.20;;;2.90;99.90;;;;;;5045174;28;20206;-70
2023/01/19 06:46:09;;;;;;;17.38;7.50;;;3.00;99.90;;;;;;5044689;28;20447;-69
2023/01/19 06:48:36;;;;;;;23.20;11.00;;;3.20;99.90;;;;;;5044822;28;20197;-69
2023/01/19 06:51:04;;;;;;;14.70;5.00;;;3.20;99.90;;;;;;5045494;28;20198;-69
2023/01/19 06:53:32;;;;;;;13.60;4.57;;;3.10;99.90;;;;;;5044519;28;20205;-69
2023/01/19 06:56:00;;;;;;;16.63;3.90;;;3.00;99.90;;;;;;5040113;28;20200;-69
2023/01/19 06:58:28;;;;;;;20.90;6.00;;;3.00;99.90;;;;;;5050698;28;20201;-69
2023/01/19 07:00:59;;;;;;;15.73;5.20;;;2.90;99.90;;;;;;5046292;28;20207;-69
2023/01/19 07:03:26;;;;;;;17.87;3.50;;;2.90;99.90;;;;;;5050337;28;20208;-69
2023/01/19 07:05:52;;;;;;;18.40;5.60;;;2.90;99.90;;;;;;5037200;28;20663;-69
2023/01/19 07:08:19;;;;;;;22.13;8.10;;;2.80;99.90;;;;;;5042977;28;20729;-69
2023/01/19 07:10:46;;;;;;;16.87;4.10;;;2.80;99.90;;;;;;5046667;28;20211;-69
2023/01/19 07:13:35;;;;;;;22.33;5.00;;;2.80;99.90;;;;;;5047382;28;20211;-69
2023/01/19 07:16:05;;;;;;;18.60;3.40;;;2.80;99.90;;;;;;5051196;28;20207;-69
2023/01/19 07:18:34;;;;;;;15.93;4.53;;;2.80;99.90;;;;;;5051692;28;20196;-69
2023/01/19 07:21:01;;;;;;;24.63;5.00;;;2.80;99.90;;;;;;5046001;28;20218;-69
2023/01/19 07:23:31;;;;;;;19.60;3.60;;;2.80;99.90;;;;;;5054913;28;20208;-69
2023/01/19 07:25:59;;;;;;;26.17;6.47;;;2.80;99.90;;;;;;5049136;28;20552;-69
2023/01/19 07:28:30;;;;;;;13.13;3.83;;;2.80;99.90;;;;;;5045174;28;20209;-69
2023/01/19 07:30:57;;;;;;;24.93;4.80;;;2.80;99.90;;;;;;5045979;28;20677;-69
2023/01/19 07:33:28;;;;;;;23.43;4.90;;;2.80;99.90;;;;;;5046470;28;20592;-69
2023/01/19 07:35:54;;;;;;;17.43;3.90;;;2.80;99.90;;;;;;5051661;28;20303;-70
2023/01/19 07:38:21;;;;;;;21.17;7.07;;;2.80;99.90;;;;;;5033562;28;20646;-69
2023/01/19 07:40:48;;;;;;;23.27;4.67;;;2.80;99.90;;;;;;5049554;28;20588;-68
2023/01/19 07:43:15;;;;;;;13.10;4.20;;;2.70;99.90;;;;;;5041305;28;20510;-68
2023/01/19 07:45:43;;;;;;;15.33;3.73;;;2.70;99.90;;;;;;5050956;28;20615;-68
2023/01/19 07:48:10;;;;;;;15.70;3.73;;;2.80;99.90;;;;;;5042836;28;20717;-68
2023/01/19 07:50:37;;;;;;;14.27;3.90;;;2.70;99.90;;;;;;5041689;28;20292;-68
2023/01/19 07:53:06;;;;;;;17.73;4.53;;;2.80;99.90;;;;;;5052408;28;20218;-68
2023/01/19 07:55:33;;;;;;;17.07;4.73;;;2.80;99.90;;;;;;5043373;28;20211;-69
2023/01/19 07:58:00;;;;;;;18.27;3.80;;;2.80;99.90;;;;;;5046440;28;20298;-68
2023/01/19 08:00:26;;;;;;;42.83;5.30;;;2.70;99.90;;;;;;5045726;28;20252;-69
2023/01/19 08:02:58;;;;;;;13.67;4.03;;;2.80;99.90;;;;;;5049448;28;20235;-68
2023/01/19 08:05:28;;;;;;;14.40;2.80;;;2.80;99.90;;;;;;5048856;28;20683;-68
2023/01/19 08:07:56;;;;;;;25.97;5.20;;;2.80;99.90;;;;;;5043270;28;20212;-69
2023/01/19 08:10:25;;;;;;;24.47;3.50;;;2.80;99.90;;;;;;5034662;28;20286;-70
2023/01/19 08:12:53;;;;;;;19.67;3.90;;;2.90;99.90;;;;;;5025276;28;20322;-69
2023/01/19 08:15:23;;;;;;;18.70;3.77;;;2.90;99.90;;;;;;5046417;28;20216;-68
2023/01/19 08:17:55;;;;;;;18.63;3.50;;;2.90;99.90;;;;;;5042681;28;20260;-69
2023/01/19 08:20:22;;;;;;;23.03;7.13;;;2.90;99.90;;;;;;5041921;28;20259;-69
2023/01/19 08:22:49;;;;;;;16.13;5.67;;;2.90;99.90;;;;;;5049295;28;20297;-69
2023/01/19 08:25:15;;;;;;;26.50;7.07;;;2.90;99.90;;;;;;5048065;28;20209;-69
2023/01/19 08:27:43;;;;;;;35.83;8.23;;;3.00;99.90;;;;;;5048245;28;20212;-68
2023/01/19 08:30:10;;;;;;;28.47;6.83;;;3.00;99.90;;;;;;5049916;28;20672;-69
2023/01/19 08:32:37;;;;;;;21.97;5.67;;;3.00;99.90;;;;;;5047639;28;20679;-69
2023/01/19 08:35:05;;;;;;;29.47;5.20;;;3.10;99.90;;;;;;5045478;28;20201;-69
2023/01/19 08:37:31;;;;;;;29.07;6.13;;;3.10;99.90;;;;;;5048918;28;20309;-69
2023/01/19 08:39:59;;;;;;;22.87;6.60;;;3.10;99.90;;;;;;5050699;28;20231;-69
2023/01/19 08:42:26;;;;;;;15.70;4.17;;;3.10;99.90;;;;;;5048826;28;20682;-69
2023/01/19 08:44:53;;;;;;;19.30;4.93;;;3.10;99.90;;;;;;5047360;28;20259;-70
2023/01/19 08:47:24;;;;;;;20.60;5.73;;;3.10;99.90;;;;;;5042214;28;20398;-69
2023/01/19 08:49:50;;;;;;;22.53;4.27;;;3.10;99.90;;;;;;5045266;28;20734;-69
2023/01/19 08:52:17;;;;;;;18.53;4.37;;;3.20;99.90;;;;;;5043151;28;20308;-69
2023/01/19 08:54:44;;;;;;;21.33;3.73;;;3.20;99.90;;;;;;5067874;28;20214;-70
2023/01/19 08:57:11;;;;;;;17.60;4.13;;;3.20;99.90;;;;;;5029860;28;20214;-68
2023/01/19 08:59:37;;;;;;;21.70;4.20;;;3.20;99.90;;;;;;5049962;28;20211;-68
2023/01/19 09:02:04;;;;;;;19.87;4.57;;;3.20;99.90;;;;;;5050558;28;20226;-69
2023/01/19 09:04:33;;;;;;;23.40;4.73;;;3.20;99.90;;;;;;5051499;28;20209;-70
2023/01/19 09:06:59;;;;;;;23.00;5.20;;;3.20;99.90;;;;;;5052764;28;20341;-68
2023/01/19 09:09:26;;;;;;;13.17;4.07;;;3.20;99.90;;;;;;5045183;28;20308;-69
2023/01/19 09:11:54;;;;;;;14.47;4.67;;;3.20;99.90;;;;;;5036238;28;20668;-70
2023/01/19 09:14:21;;;;;;;11.67;4.27;;;3.20;99.90;;;;;;5047497;28;20208;-69
2023/01/19 09:16:47;;;;;;;18.43;4.13;;;3.20;99.90;;;;;;5051100;28;20228;-69
2023/01/19 09:19:14;;;;;;;25.73;4.90;;;3.10;99.90;;;;;;5041876;28;20205;-68
2023/01/19 09:21:41;;;;;;;16.10;4.70;;;3.10;99.90;;;;;;5048697;28;20205;-69
2023/01/19 09:24:08;;;;;;;17.70;4.93;;;3.10;99.90;;;;;;5043799;28;20685;-69
2023/01/19 09:26:35;;;;;;;14.40;5.37;;;3.00;99.90;;;;;;5049564;28;20201;-69
2023/01/19 09:29:02;;;;;;;14.17;5.20;;;3.00;99.90;;;;;;5027991;28;20212;-69
2023/01/19 09:31:28;;;;;;;16.97;4.60;;;3.00;99.90;;;;;;5052496;28;20249;-69
2023/01/19 09:33:55;;;;;;;14.37;5.27;;;2.90;99.90;;;;;;5031092;28;20727;-69
2023/01/19 09:36:22;;;;;;;21.10;6.07;;;2.90;99.90;;;;;;5047021;28;20327;-68
2023/01/19 09:38:49;;;;;;;22.90;5.00;;;2.90;99.90;;;;;;5044740;28;20216;-69
2023/01/19 09:41:20;;;;;;;17.73;5.50;;;2.90;99.90;;;;;;5046229;28;20427;-68
2023/01/19 09:43:54;;;;;;;18.73;5.90;;;3.00;99.90;;;;;;5049628;28;20716;-68
2023/01/19 09:46:50;;;;;;;16.87;5.83;;;3.00;99.90;;;;;;5044763;28;20316;-70
2023/01/19 09:49:30;;;;;;;20.97;6.40;;;3.00;99.90;;;;;;5043614;28;20704;-70
2023/01/19 09:51:58;;;;;;;22.23;6.10;;;3.00;99.90;;;;;;5045114;28;20226;-69
2023/01/19 09:54:39;;;;;;;24.10;7.07;;;3.10;99.90;;;;;;5046498;28;20202;-68
2023/01/19 09:57:10;;;;;;;19.43;6.90;;;3.10;99.90;;;;;;5044705;28;20205;-68
2023/01/19 09:59:38;;;;;;;26.03;7.43;;;3.10;99.90;;;;;;5038927;28;20633;-68
2023/01/19 10:02:22;;;;;;;23.30;7.73;;;3.20;99.90;;;;;;5043738;28;20797;-69
2023/01/19 10:05:16;;;;;;;16.10;7.10;;;3.20;99.90;;;;;;5041871;28;20208;-69
2023/01/19 10:07:56;;;;;;;23.80;6.80;;;3.30;99.90;;;;;;5039826;28;20584;-69
2023/01/19 10:10:33;;;;;;;22.80;6.90;;;3.30;99.90;;;;;;5046615;28;20216;-70
2023/01/19 10:13:32;;;;;;;17.83;6.40;;;3.30;99.90;;;;;;5029746;28;20201;-69
2023/01/19 10:16:41;;;;;;;23.73;6.50;;;3.30;99.90;;;;;;5046415;28;20580;-69
2023/01/19 10:19:22;;;;;;;17.70;6.10;;;3.40;99.90;;;;;;5046885;28;20657;-68
2023/01/19 10:21:50;;;;;;;19.53;5.73;;;3.40;99.90;;;;;;5042318;28;20216;-69
2023/01/19 10:24:28;;;;;;;23.80;5.67;;;3.40;99.90;;;;;;5043251;28;20205;-68
2023/01/19 10:26:55;;;;;;;20.17;5.87;;;3.50;99.90;;;;;;5048967;28;20255;-69
2023/01/19 10:29:36;;;;;;;15.87;5.60;;;3.50;99.90;;;;;;5045906;28;20210;-69
2023/01/19 10:32:19;;;;;;;18.30;5.87;;;3.50;99.90;;;;;;5049959;28;20270;-69
2023/01/19 10:34:48;;;;;;;15.07;5.70;;;3.50;99.90;;;;;;5046100;28;20205;-68
2023/01/19 10:37:29;;;;;;;21.53;5.00;;;3.50;99.90;;;;;;5035358;28;20209;-68
2023/01/19 10:40:10;;;;;;;16.07;6.07;;;3.60;99.90;;;;;;5032594;28;20320;-69
2023/01/19 10:42:39;;;;;;;18.67;5.33;;;3.60;99.90;;;;;;5044708;28;20698;-69
2023/01/19 10:45:34;;;;;;;15.73;4.67;;;3.70;99.90;;;;;;5053339;28;20232;-69
2023/01/19 10:48:06;;;;;;;16.13;4.60;;;3.70;99.90;;;;;;5042601;28;20603;-70
2023/01/19 10:50:39;;;;;;;14.53;4.77;;;3.80;99.90;;;;;;5051054;28;20204;-69
2023/01/19 10:53:21;;;;;;;14.27;4.20;;;3.80;99.90;;;;;;5048958;28;20213;-71
2023/01/19 10:56:12;;;;;;;15.73;5.17;;;3.80;99.90;;;;;;5044159;28;20209;-70
2023/01/19 10:58:39;;;;;;;16.40;5.03;;;3.90;99.90;;;;;;5054588;28;20232;-70
2023/01/19 11:01:28;;;;;;;15.53;5.37;;;3.90;99.90;;;;;;5046766;28;20563;-69
2023/01/19 11:04:04;;;;;;;10.80;3.70;;;3.90;99.90;;;;;;5028799;28;20739;-69
2023/01/19 11:06:33;;;;;;;19.60;4.20;;;4.00;99.90;;;;;;5050279;28;20208;-70
2023/01/19 11:09:19;;;;;;;12.93;4.40;;;4.00;99.90;;;;;;5044999;28;20297;-71
2023/01/19 11:11:50;;;;;;;13.93;3.63;;;4.10;99.90;;;;;;5044691;28;20205;-70
2023/01/19 11:14:21;;;;;;;17.50;4.33;;;4.00;99.90;;;;;;5049328;28;20205;-71
2023/01/19 11:16:54;;;;;;;16.93;3.83;;;4.10;99.90;;;;;;5050289;28;20230;-69
2023/01/19 11:19:30;;;;;;;16.27;3.37;;;4.10;99.90;;;;;;5047565;28;20205;-71
2023/01/19 11:22:20;;;;;;;14.33;3.43;;;4.10;99.90;;;;;;5047794;28;20208;-70
2023/01/19 11:24:48;;;;;;;14.67;3.00;;;4.10;99.90;;;;;;5044649;28;20666;-72
2023/01/19 11:27:17;;;;;;;10.07;2.67;;;4.20;99.90;;;;;;5050083;28;20238;-70
2023/01/19 11:29:52;;;;;;;14.90;3.13;;;4.20;99.90;;;;;;5048840;28;20278;-70
2023/01/19 11:32:21;;;;;;;8.60;3.43;;;4.20;99.90;;;;;;5023655;28;20581;-71
2023/01/19 11:34:51;;;;;;;9.50;2.63;;;4.30;99.90;;;;;;5045909;28;20219;-71
2023/01/19 11:37:18;;;;;;;16.00;3.27;;;4.30;99.90;;;;;;5043841;28;20308;-70
2023/01/19 11:39:48;;;;;;;11.20;3.20;;;4.30;99.90;;;;;;5043317;28;20420;-70
2023/01/19 11:42:16;;;;;;;9.53;3.13;;;4.40;99.90;;;;;;5041756;28;20718;-71
2023/01/19 11:45:15;;;;;;;9.97;2.63;;;4.40;99.90;;;;;;5042516;28;20678;-70
2023/01/19 11:47:51;;;;;;;11.20;3.60;;;4.40;99.90;;;;;;5041096;28;20677;-70
2023/01/19 11:50:32;;;;;;;14.87;2.63;;;4.40;99.90;;;;;;5046008;28;20215;-70
2023/01/19 11:53:05;;;;;;;5.03;2.40;;;4.40;99.90;;;;;;5046850;28;20216;-69
2023/01/19 11:55:32;;;;;;;10.27;2.20;;;4.50;99.90;;;;;;5029278;28;20688;-71
2023/01/19 11:58:01;;;;;;;9.90;2.10;;;4.50;99.90;;;;;;5052116;28;20259;-71
2023/01/19 12:00:34;;;;;;;7.90;2.37;;;4.50;99.90;;;;;;5016266;28;20203;-71
2023/01/19 12:03:24;;;;;;;7.67;2.47;;;4.50;99.90;;;;;;5051305;28;20244;-71
2023/01/19 12:05:54;;;;;;;10.50;2.37;;;4.50;99.90;;;;;;5035884;28;20202;-71
2023/01/19 12:08:25;;;;;;;8.97;2.10;;;4.50;99.90;;;;;;5044843;28;20213;-70
2023/01/19 12:10:55;;;;;;;11.20;2.10;;;4.50;99.90;;;;;;5047144;28;20197;-69
2023/01/19 12:13:24;;;;;;;5.70;2.40;;;4.50;99.90;;;;;;5040639;28;20206;-70
2023/01/19 12:15:59;;;;;;;8.77;2.23;;;4.50;99.90;;;;;;5039060;28;20719;-70
2023/01/19 12:18:35;;;;;;;6.93;2.30;;;4.60;99.90;;;;;;5042541;28;20737;-70
2023/01/19 12:21:02;;;;;;;10.10;2.30;;;4.60;99.90;;;;;;5041346;28;20198;-70
2023/01/19 12:23:40;;;;;;;9.87;2.93;;;4.70;99.90;;;;;;5046161;28;20606;-71
2023/01/19 12:26:15;;;;;;;7.53;2.10;;;4.70;99.90;;;;;;5045924;28;20296;-71
2023/01/19 12:28:46;;;;;;;7.67;3.20;;;4.80;99.90;;;;;;5046572;28;20755;-71
2023/01/19 12:31:16;;;;;;;12.83;2.43;;;4.80;99.90;;;;;;5045981;28;20664;-70
2023/01/19 12:33:44;;;;;;;9.20;2.37;;;4.80;99.90;;;;;;5046861;28;20202;-70
2023/01/19 12:36:28;;;;;;;6.27;1.87;;;4.80;99.90;;;;;;5049770;28;20627;-70
2023/01/19 12:39:15;;;;;;;6.40;1.53;;;4.80;99.90;;;;;;5043617;28;20231;-71
2023/01/19 12:41:42;;;;;;;10.20;2.50;;;4.90;99.90;;;;;;5045932;28;20201;-70
2023/01/19 12:44:09;;;;;;;10.77;2.30;;;4.90;99.90;;;;;;5048022;28;20259;-70
2023/01/19 12:46:45;;;;;;;5.50;1.77;;;4.90;99.90;;;;;;5045007;28;20254;-70
2023/01/19 12:49:30;;;;;;;5.37;1.43;;;5.00;99.90;;;;;;5046053;28;20293;-70
2023/01/19 12:52:24;;;;;;;5.00;1.53;;;5.00;99.90;;;;;;5023258;28;20230;-70
2023/01/19 12:55:12;;;;;;;4.40;1.30;;;5.00;99.90;;;;;;5038783;28;20473;-70
2023/01/19 12:58:01;;;;;;;7.90;1.50;;;5.00;99.90;;;;;;5038272;28;20237;-70
2023/01/19 13:00:36;;;;;;;6.97;1.43;;;5.00;99.90;;;;;;5038548;28;20194;-71
2023/01/19 13:03:15;;;;;;;8.70;1.53;;;5.10;99.90;;;;;;5045835;28;20593;-71
2023/01/19 13:05:41;;;;;;;7.63;1.30;;;5.10;99.90;;;;;;5050089;28;20202;-70
2023/01/19 13:08:08;;;;;;;8.63;1.70;;;5.10;99.90;;;;;;5042286;28;20307;-70
2023/01/19 13:10:59;;;;;;;4.90;1.70;;;5.30;99.90;;;;;;5049973;28;20211;-71
2023/01/19 13:13:36;;;;;;;5.60;1.57;;;5.30;99.90;;;;;;5043495;28;20218;-71
2023/01/19 13:16:18;;;;;;;6.97;1.50;;;5.40;99.90;;;;;;5057930;28;20201;-70